createdAt,value
2022-12-13T00:01:16.918Z,4.07
2022-12-13T00:06:18.419Z,4.28
2022-12-13T00:11:20.627Z,5.50
2022-12-13T00:16:24.565Z,4.38
2022-12-13T00:21:29.307Z,5.15
2022-12-13T00:26:32.139Z,3.42
2022-12-13T00:36:56.440Z,5.47
2022-12-13T00:41:57.946Z,3.53
2022-12-13T00:46:59.494Z,4.75
2022-12-13T00:52:01.041Z,5.55
2022-12-13T00:57:02.704Z,4.55
2022-12-13T01:02:04.400Z,5.22
2022-12-13T01:07:05.930Z,5.05
2022-12-13T01:12:07.425Z,4.47
2022-12-13T01:17:09.013Z,5.03
2022-12-13T01:22:10.679Z,7.05
2022-12-13T01:27:12.171Z,5.82
2022-12-13T01:32:13.670Z,6.20
2022-12-13T01:37:15.130Z,6.18
2022-12-13T01:42:16.847Z,6.97
2022-12-13T01:47:24.550Z,5.45
2022-12-13T01:52:26.196Z,5.00
2022-12-13T01:57:28.007Z,5.00
2022-12-13T02:02:29.706Z,5.70
2022-12-13T02:07:34.895Z,6.43
2022-12-13T02:12:38.074Z,5.03
2022-12-13T02:17:45.823Z,6.13
2022-12-13T02:23:07.041Z,5.85
2022-12-13T02:28:30.295Z,4.57
2022-12-13T02:33:56.187Z,5.95
2022-12-13T02:39:03.409Z,5.82
2022-12-13T02:44:26.606Z,4.88
2022-12-13T02:49:31.907Z,6.22
2022-12-13T02:54:33.627Z,6.07
2022-12-13T02:59:39.327Z,6.22
2022-12-13T03:05:08.198Z,5.53
2022-12-13T03:10:18.297Z,7.00
2022-12-13T03:15:38.315Z,5.75
2022-12-13T03:20:39.972Z,4.90
2022-12-13T03:25:41.599Z,5.57
2022-12-13T03:30:43.095Z,7.07
2022-12-13T03:35:45.756Z,6.00
2022-12-13T03:40:47.759Z,7.03
2022-12-13T03:45:50.174Z,6.60
2022-12-13T03:50:53.915Z,6.03
2022-12-13T03:55:55.373Z,6.70
2022-12-13T04:00:56.831Z,6.82
2022-12-13T04:05:58.507Z,6.38
2022-12-13T04:11:00.120Z,6.93
2022-12-13T04:16:02.993Z,6.68
2022-12-13T04:21:04.723Z,6.07
2022-12-13T04:26:06.292Z,6.55
2022-12-13T04:31:07.809Z,5.65
2022-12-13T04:36:09.335Z,7.82
2022-12-13T04:41:16.131Z,5.75
2022-12-13T04:46:18.439Z,6.78
2022-12-13T04:51:20.125Z,7.93
2022-12-13T04:56:21.599Z,7.30
2022-12-13T05:01:23.434Z,5.90
2022-12-13T05:06:26.685Z,6.85
2022-12-13T05:11:35.852Z,5.93
2022-12-13T05:16:37.682Z,6.53
2022-12-13T05:21:39.182Z,6.68
2022-12-13T05:26:40.710Z,5.15
2022-12-13T05:31:42.149Z,6.18
2022-12-13T05:36:43.582Z,6.80
2022-12-13T05:41:45.138Z,6.22
2022-12-13T05:46:46.622Z,5.75
2022-12-13T05:51:48.207Z,6.50
2022-12-13T05:56:49.675Z,6.38
2022-12-13T06:01:51.173Z,5.53
2022-12-13T06:06:52.924Z,6.00
2022-12-13T06:12:01.340Z,6.00
2022-12-13T06:17:03.930Z,6.00
2022-12-13T06:22:05.454Z,6.82
2022-12-13T06:27:06.899Z,7.10
2022-12-13T06:32:09.056Z,7.38
2022-12-13T06:37:14.534Z,5.97
2022-12-13T06:42:22.338Z,7.13
2022-12-13T06:47:32.412Z,7.78
2022-12-13T06:52:40.430Z,12.75
2022-12-13T06:57:52.739Z,10.60
2022-12-13T07:03:09.541Z,7.70
2022-12-13T07:08:14.524Z,5.70
2022-12-13T07:13:30.480Z,6.97
2022-12-13T07:18:42.246Z,7.95
2022-12-13T07:23:55.538Z,8.02
2022-12-13T07:35:01.472Z,10.98
2022-12-13T07:40:24.481Z,8.60
2022-12-13T07:45:26.499Z,12.40
2022-12-13T07:50:27.978Z,13.18
2022-12-13T07:55:38.523Z,11.13
2022-12-13T08:00:46.325Z,9.73
2022-12-13T08:05:48.220Z,11.88
2022-12-13T08:10:49.733Z,10.10
2022-12-13T08:15:51.401Z,8.85
2022-12-13T08:20:53.412Z,8.38
2022-12-13T08:25:55.538Z,7.30
2022-12-13T08:31:03.479Z,5.82
2022-12-13T08:36:12.226Z,6.50
2022-12-13T08:41:14.074Z,8.40
2022-12-13T08:46:15.808Z,6.13
2022-12-13T08:51:24.622Z,6.05
2022-12-13T08:56:28.170Z,6.65
2022-12-13T09:01:29.627Z,6.55
2022-12-13T09:06:31.233Z,4.93
2022-12-13T09:11:34.849Z,7.15
2022-12-13T09:16:38.332Z,5.32
2022-12-13T09:21:39.938Z,6.93
2022-12-13T09:26:44.670Z,7.03
2022-12-13T09:31:52.678Z,8.93
2022-12-13T09:36:54.695Z,6.97
2022-12-13T09:42:10.689Z,6.25
2022-12-13T09:47:46.953Z,6.47
2022-12-13T09:52:49.176Z,7.18
2022-12-13T09:57:52.266Z,8.43
2022-12-13T10:02:57.021Z,7.55
2022-12-13T10:08:03.896Z,5.78
2022-12-13T10:13:25.074Z,7.72
2022-12-13T10:18:41.693Z,9.75
2022-12-13T10:24:22.787Z,7.53
2022-12-13T10:29:06.439Z,6.18
2022-12-13T10:34:20.239Z,7.43
2022-12-13T10:39:44.596Z,7.75
2022-12-13T10:44:46.495Z,7.85
2022-12-13T10:49:52.770Z,6.80
2022-12-13T10:55:23.011Z,8.18
2022-12-13T11:00:34.155Z,7.97
2022-12-13T11:05:37.270Z,9.85
2022-12-13T11:10:39.086Z,9.15
2022-12-13T11:15:41.001Z,9.60
2022-12-13T11:20:54.660Z,9.10
2022-12-13T11:26:05.145Z,8.65
2022-12-13T11:31:26.894Z,8.15
2022-12-13T11:36:34.298Z,10.45
2022-12-13T11:41:47.592Z,7.15
2022-12-13T11:46:55.978Z,8.00
2022-12-13T11:52:02.558Z,7.47
2022-12-13T11:57:13.319Z,8.10
2022-12-13T12:02:38.200Z,6.13
2022-12-13T12:08:12.592Z,7.05
2022-12-13T12:13:29.830Z,6.50
2022-12-13T12:18:31.422Z,6.63
2022-12-13T12:24:01.735Z,6.35
2022-12-13T12:29:13.533Z,5.90
2022-12-13T12:34:33.096Z,4.60
2022-12-13T12:39:50.457Z,5.88
2022-12-13T12:45:55.152Z,7.03
2022-12-13T12:50:55.333Z,3.92
2022-12-13T12:55:59.407Z,3.60
2022-12-13T13:01:23.836Z,4.72
2022-12-13T13:06:38.244Z,3.60
2022-12-13T13:11:43.057Z,3.70
2022-12-13T13:16:45.020Z,3.40
2022-12-13T13:21:51.150Z,2.97
2022-12-13T13:27:19.790Z,3.92
2022-12-13T13:32:29.737Z,3.63
2022-12-13T13:37:48.403Z,3.65
2022-12-13T13:43:32.566Z,2.78
2022-12-13T13:48:59.750Z,7.65
2022-12-13T13:59:48.469Z,1.95
2022-12-13T14:05:08.530Z,3.13
2022-12-13T14:10:22.138Z,3.05
2022-12-13T14:15:35.429Z,1.73
2022-12-13T14:20:58.023Z,2.28
2022-12-13T14:26:18.150Z,3.67
2022-12-13T14:31:31.970Z,3.28
2022-12-13T14:36:35.776Z,3.85
2022-12-13T14:41:46.538Z,3.55
2022-12-13T14:46:56.378Z,4.88
2022-12-13T14:52:33.354Z,4.15
2022-12-13T14:57:35.286Z,3.72
2022-12-13T15:02:36.903Z,2.40
2022-12-13T15:07:41.007Z,2.60
2022-12-13T15:12:44.655Z,3.22
2022-12-13T15:17:46.188Z,1.88
2022-12-13T15:22:47.905Z,3.95
2022-12-13T15:27:51.303Z,3.22
2022-12-13T15:33:02.826Z,3.60
2022-12-13T15:38:04.480Z,3.75
2022-12-13T15:43:06.099Z,3.55
2022-12-13T15:48:22.678Z,3.78
2022-12-13T15:53:27.573Z,2.83
2022-12-13T15:58:35.612Z,3.47
2022-12-13T16:03:44.929Z,3.45
2022-12-13T16:08:51.035Z,3.83
2022-12-13T16:13:58.380Z,3.00
2022-12-13T16:19:01.101Z,2.92
2022-12-13T16:24:02.530Z,3.28
2022-12-13T16:29:08.830Z,2.88
2022-12-13T16:34:10.800Z,3.78
2022-12-13T16:39:12.813Z,4.93
2022-12-13T16:44:27.017Z,4.57
2022-12-13T16:49:30.498Z,4.78
2022-12-13T16:54:32.002Z,4.20
2022-12-13T16:59:33.433Z,4.60
2022-12-13T17:04:35.001Z,3.75
2022-12-13T17:09:36.468Z,3.88
2022-12-13T17:14:38.098Z,3.75
2022-12-13T17:19:39.719Z,4.70
2022-12-13T17:24:41.229Z,5.63
2022-12-13T17:29:42.798Z,5.22
2022-12-13T17:34:44.538Z,5.97
2022-12-13T17:39:46.628Z,4.40
2022-12-13T17:44:48.156Z,5.18
2022-12-13T17:49:49.652Z,3.65
2022-12-13T17:54:51.222Z,5.10
2022-12-13T17:59:52.698Z,3.90
2022-12-13T18:04:54.123Z,4.63
2022-12-13T18:09:55.654Z,3.90
2022-12-13T18:14:57.238Z,5.40
2022-12-13T18:19:58.772Z,4.75
2022-12-13T18:25:00.316Z,5.28
2022-12-13T18:30:01.816Z,5.78
2022-12-13T18:35:03.406Z,5.75
2022-12-13T18:40:05.789Z,5.85
2022-12-13T18:45:07.577Z,14.18
2022-12-13T18:50:09.256Z,8.32
2022-12-13T18:55:10.734Z,5.85
2022-12-13T19:00:12.598Z,5.32
2022-12-13T19:05:14.064Z,5.75
2022-12-13T19:10:15.593Z,8.52
2022-12-13T19:15:17.135Z,7.20
2022-12-13T19:20:18.705Z,7.55
2022-12-13T19:25:20.246Z,7.90
2022-12-13T19:30:21.892Z,7.07
2022-12-13T19:35:23.523Z,5.07
2022-12-13T19:40:25.089Z,4.38
2022-12-13T19:45:26.552Z,3.97
2022-12-13T19:50:29.798Z,3.95
2022-12-13T19:55:31.593Z,3.40
2022-12-13T20:00:33.460Z,4.85
2022-12-13T20:05:36.000Z,4.57
2022-12-13T20:10:38.517Z,2.85
2022-12-13T20:15:46.843Z,3.55
2022-12-13T20:21:10.376Z,5.22
2022-12-13T20:26:15.288Z,4.00
2022-12-13T20:31:20.220Z,3.20
2022-12-13T20:36:25.063Z,4.57
2022-12-13T20:41:29.610Z,3.37
2022-12-13T20:46:31.664Z,3.50
2022-12-13T20:51:34.377Z,4.10
2022-12-13T20:56:38.464Z,3.90
2022-12-13T21:01:41.351Z,2.88
2022-12-13T21:06:42.895Z,4.75
2022-12-13T21:11:46.875Z,4.90
2022-12-13T21:16:56.826Z,5.32
2022-12-13T21:21:58.789Z,6.28
2022-12-13T21:27:00.775Z,6.85
2022-12-13T21:32:02.339Z,5.93
2022-12-13T21:37:03.877Z,7.07
2022-12-13T21:42:05.601Z,7.45
2022-12-13T21:47:12.368Z,6.55
2022-12-13T21:52:14.663Z,5.88
2022-12-13T21:57:16.339Z,4.03
2022-12-13T22:02:19.380Z,4.25
2022-12-13T22:07:21.016Z,4.15
2022-12-13T22:12:22.458Z,4.38
2022-12-13T22:17:33.069Z,5.30
2022-12-13T22:22:38.974Z,7.00
2022-12-13T22:27:40.401Z,6.07
2022-12-13T22:32:41.797Z,4.43
2022-12-13T22:37:43.417Z,5.18
2022-12-13T22:42:48.326Z,5.00
2022-12-13T22:47:50.020Z,4.30
2022-12-13T22:52:51.415Z,3.67
2022-12-13T22:57:52.950Z,3.95
2022-12-13T23:02:54.439Z,3.72
2022-12-13T23:07:55.880Z,3.72
2022-12-13T23:12:57.401Z,4.10
2022-12-13T23:17:58.840Z,2.80
2022-12-13T23:23:00.258Z,3.55
2022-12-13T23:28:01.705Z,2.80
2022-12-13T23:33:03.265Z,2.67
2022-12-13T23:38:04.692Z,2.65
2022-12-13T23:43:06.154Z,2.97
2022-12-13T23:48:07.642Z,2.85
2022-12-13T23:53:09.150Z,2.75
2022-12-13T23:58:11.282Z,2.55
